createdAt,value
2022-09-04T00:02:11.715Z,18.28
2022-09-04T00:04:47.813Z,18.23
2022-09-04T00:07:26.316Z,18.16
2022-09-04T00:10:09.778Z,18.13
2022-09-04T00:12:57.670Z,18.11
2022-09-04T00:15:36.395Z,18.11
2022-09-04T00:18:11.253Z,18.09
2022-09-04T00:20:45.783Z,18.07
2022-09-04T00:23:21.292Z,18.03
2022-09-04T00:26:00.472Z,18.01
2022-09-04T00:28:37.581Z,17.98
2022-09-04T00:31:24.619Z,17.95
2022-09-04T00:34:07.511Z,17.95
2022-09-04T00:36:43.360Z,17.94
2022-09-04T00:39:18.215Z,17.95
2022-09-04T00:42:07.376Z,17.98
2022-09-04T00:45:02.156Z,17.96
2022-09-04T00:48:00.705Z,17.96
2022-09-04T00:50:57.521Z,17.95
2022-09-04T00:54:01.521Z,17.95
2022-09-04T00:56:55.667Z,17.93
2022-09-04T00:59:40.340Z,17.93
2022-09-04T01:02:21.043Z,17.91
2022-09-04T01:05:01.772Z,17.93
2022-09-04T01:07:50.388Z,17.89
2022-09-04T01:10:33.154Z,17.83
2022-09-04T01:13:13.009Z,17.77
2022-09-04T01:15:48.004Z,17.70
2022-09-04T01:18:25.205Z,17.66
2022-09-04T01:21:21.987Z,17.61
2022-09-04T01:24:22.543Z,17.54
2022-09-04T01:27:06.495Z,17.49
2022-09-04T01:29:46.556Z,17.46
2022-09-04T01:32:26.549Z,17.42
2022-09-04T01:35:05.678Z,17.39
2022-09-04T01:37:47.724Z,17.35
2022-09-04T01:40:36.302Z,17.32
2022-09-04T01:43:11.528Z,17.29
2022-09-04T01:46:07.995Z,17.23
2022-09-04T01:48:46.939Z,17.16
2022-09-04T01:51:27.558Z,17.10
2022-09-04T01:54:13.753Z,17.05
2022-09-04T01:56:48.496Z,17.04
2022-09-04T01:59:29.609Z,17.05
2022-09-04T02:02:05.298Z,17.04
2022-09-04T02:04:43.075Z,17.02
2022-09-04T02:07:26.231Z,17.00
2022-09-04T02:10:20.826Z,17.00
2022-09-04T02:13:01.016Z,16.97
2022-09-04T02:15:43.268Z,16.94
2022-09-04T02:18:21.748Z,16.90
2022-09-04T02:20:59.472Z,16.86
2022-09-04T02:23:38.111Z,16.83
2022-09-04T02:26:16.363Z,16.82
2022-09-04T02:28:58.591Z,16.78
2022-09-04T02:31:39.691Z,16.73
2022-09-04T02:34:12.461Z,16.69
2022-09-04T02:36:50.640Z,16.69
2022-09-04T02:39:38.197Z,16.66
2022-09-04T02:42:18.349Z,16.65
2022-09-04T02:44:58.379Z,16.63
2022-09-04T02:47:46.022Z,16.62
2022-09-04T02:50:31.541Z,16.59
2022-09-04T02:53:16.666Z,16.56
2022-09-04T02:55:59.300Z,16.54
2022-09-04T02:58:39.799Z,16.50
2022-09-04T03:01:16.591Z,16.45
2022-09-04T03:03:56.582Z,16.43
2022-09-04T03:06:35.977Z,16.40
2022-09-04T03:09:12.076Z,16.37
2022-09-04T03:11:47.195Z,16.36
2022-09-04T03:14:24.795Z,16.34
2022-09-04T03:17:00.228Z,16.31
2022-09-04T03:19:43.220Z,16.31
2022-09-04T03:22:21.229Z,16.28
2022-09-04T03:25:07.948Z,16.29
2022-09-04T03:27:38.419Z,16.25
2022-09-04T03:30:11.585Z,16.23
2022-09-04T03:32:52.673Z,16.20
2022-09-04T03:35:42.687Z,16.20
2022-09-04T03:38:22.181Z,16.17
2022-09-04T03:41:06.342Z,16.14
2022-09-04T03:44:01.772Z,16.07
2022-09-04T03:46:46.096Z,16.02
2022-09-04T03:49:28.922Z,16.03
2022-09-04T03:52:08.803Z,16.01
2022-09-04T03:55:13.896Z,15.97
2022-09-04T03:58:01.500Z,15.95
2022-09-04T04:00:41.569Z,15.93
2022-09-04T04:03:31.513Z,15.91
2022-09-04T04:06:13.150Z,15.92
2022-09-04T04:09:25.917Z,15.92
2022-09-04T04:12:25.352Z,15.90
2022-09-04T04:15:10.322Z,15.86
2022-09-04T04:18:07.332Z,15.86
2022-09-04T04:20:46.388Z,15.84
2022-09-04T04:23:48.834Z,15.84
2022-09-04T04:26:32.154Z,15.79
2022-09-04T04:29:30.345Z,15.79
2022-09-04T04:32:16.584Z,15.81
2022-09-04T04:35:02.367Z,15.78
2022-09-04T04:37:46.900Z,15.76
2022-09-04T04:40:24.900Z,15.76
2022-09-04T04:43:05.038Z,15.78
2022-09-04T04:45:54.344Z,15.78
2022-09-04T04:48:46.781Z,15.77
2022-09-04T04:51:40.898Z,15.77
2022-09-04T04:54:28.733Z,15.74
2022-09-04T04:57:05.299Z,15.70
2022-09-04T04:59:46.918Z,15.69
2022-09-04T05:02:23.579Z,15.69
2022-09-04T05:05:02.941Z,15.68
2022-09-04T05:07:39.921Z,15.67
2022-09-04T05:10:22.662Z,15.69
2022-09-04T05:13:02.092Z,15.72
2022-09-04T05:16:05.198Z,15.72
2022-09-04T05:18:37.475Z,15.72
2022-09-04T05:21:14.691Z,15.74
2022-09-04T05:23:54.386Z,15.72
2022-09-04T05:26:32.337Z,15.71
2022-09-04T05:29:09.136Z,15.68
2022-09-04T05:31:52.561Z,15.67
2022-09-04T05:34:34.140Z,15.68
2022-09-04T05:37:13.827Z,15.72
2022-09-04T05:40:01.008Z,15.78
2022-09-04T05:42:48.242Z,15.82
2022-09-04T05:45:27.268Z,15.85
2022-09-04T05:48:11.148Z,15.90
2022-09-04T05:51:01.433Z,15.93
2022-09-04T05:54:08.700Z,15.96
2022-09-04T05:57:07.109Z,16.01
2022-09-04T05:59:56.427Z,16.04
2022-09-04T06:02:59.903Z,16.10
2022-09-04T06:05:46.236Z,16.14
2022-09-04T06:08:29.247Z,16.19
2022-09-04T06:11:27.838Z,16.24
2022-09-04T06:14:13.047Z,16.34
2022-09-04T06:17:01.158Z,16.40
2022-09-04T06:19:48.119Z,16.49
2022-09-04T06:22:41.936Z,16.56
2022-09-04T06:25:41.368Z,16.66
2022-09-04T06:28:48.625Z,16.77
2022-09-04T06:31:49.181Z,16.84
2022-09-04T06:34:25.782Z,16.86
2022-09-04T06:37:09.950Z,16.89
2022-09-04T06:39:58.982Z,16.91
2022-09-04T06:42:43.125Z,16.96
2022-09-04T06:45:25.987Z,16.97
2022-09-04T06:48:11.388Z,17.00
2022-09-04T06:50:51.616Z,17.06
2022-09-04T06:53:31.302Z,17.14
2022-09-04T06:56:19.136Z,17.32
2022-09-04T06:59:13.956Z,17.55
2022-09-04T07:01:54.710Z,17.79
2022-09-04T07:04:37.770Z,18.00
2022-09-04T07:07:19.251Z,18.13
2022-09-04T07:09:52.345Z,18.30
2022-09-04T07:12:49.909Z,18.48
2022-09-04T07:15:40.470Z,18.70
2022-09-04T07:18:26.462Z,18.85
2022-09-04T07:21:06.179Z,19.09
2022-09-04T07:23:47.661Z,19.29
2022-09-04T07:26:26.159Z,19.48
2022-09-04T07:29:16.322Z,19.67
2022-09-04T07:31:55.513Z,19.85
2022-09-04T07:34:30.887Z,20.04
2022-09-04T07:37:07.881Z,20.12
2022-09-04T07:39:45.672Z,20.14
2022-09-04T07:42:22.679Z,20.18
2022-09-04T07:45:02.843Z,20.16
2022-09-04T07:47:38.419Z,20.15
2022-09-04T07:50:13.445Z,20.12
2022-09-04T07:53:03.682Z,20.15
2022-09-04T07:55:42.044Z,20.28
2022-09-04T07:58:49.841Z,20.48
2022-09-04T08:01:45.843Z,20.73
2022-09-04T08:04:38.275Z,20.99
2022-09-04T08:07:15.717Z,21.18
2022-09-04T08:10:09.656Z,21.37
2022-09-04T08:13:10.012Z,21.53
2022-09-04T08:15:46.578Z,21.66
2022-09-04T08:18:32.788Z,21.77
2022-09-04T08:21:16.398Z,21.92
2022-09-04T08:24:40.802Z,22.08
2022-09-04T08:27:21.701Z,22.23
2022-09-04T08:30:06.808Z,22.35
2022-09-04T08:33:11.054Z,22.40
2022-09-04T08:35:55.321Z,22.49
2022-09-04T08:38:41.449Z,22.64
2022-09-04T08:41:34.947Z,22.82
2022-09-04T08:44:41.836Z,22.91
2022-09-04T08:47:41.476Z,23.09
2022-09-04T08:50:37.384Z,23.25
2022-09-04T08:53:36.003Z,23.30
2022-09-04T08:56:26.135Z,23.39
2022-09-04T08:59:26.828Z,23.49
2022-09-04T09:02:32.398Z,23.57
2022-09-04T09:05:22.158Z,23.60
2022-09-04T09:08:19.073Z,23.71
2022-09-04T09:11:19.472Z,23.73
2022-09-04T09:14:12.741Z,23.78
2022-09-04T09:16:46.920Z,23.84
2022-09-04T09:19:30.942Z,23.88
2022-09-04T09:22:18.131Z,23.94
2022-09-04T09:25:16.215Z,24.08
2022-09-04T09:28:18.038Z,24.19
2022-09-04T09:31:13.335Z,24.31
2022-09-04T09:34:13.122Z,24.39
2022-09-04T09:37:21.352Z,24.48
2022-09-04T09:40:18.739Z,24.57
2022-09-04T09:43:27.259Z,24.61
2022-09-04T09:46:31.865Z,24.69
2022-09-04T09:49:51.636Z,24.69
2022-09-04T09:52:39.097Z,24.73
2022-09-04T09:55:23.876Z,24.81
2022-09-04T09:58:29.486Z,24.85
2022-09-04T10:01:15.579Z,24.84
2022-09-04T10:04:19.503Z,24.88
2022-09-04T10:07:21.523Z,24.92
2022-09-04T10:10:27.412Z,24.91
2022-09-04T10:13:28.996Z,24.95
2022-09-04T10:16:28.590Z,24.93
2022-09-04T10:19:39.340Z,24.93
2022-09-04T10:22:47.276Z,24.99
2022-09-04T10:25:46.882Z,25.04
2022-09-04T10:28:40.963Z,25.04
2022-09-04T10:31:44.717Z,25.08
2022-09-04T10:34:39.760Z,25.09
2022-09-04T10:37:27.660Z,25.07
2022-09-04T10:40:27.813Z,25.07
2022-09-04T10:43:13.807Z,25.00
2022-09-04T10:45:49.244Z,24.99
2022-09-04T10:48:42.808Z,24.99
2022-09-04T10:51:49.817Z,24.99
2022-09-04T10:54:51.045Z,25.02
2022-09-04T10:57:40.103Z,25.02
2022-09-04T11:00:14.030Z,25.01
2022-09-04T11:03:19.655Z,25.04
2022-09-04T11:06:12.823Z,25.14
2022-09-04T11:09:07.019Z,25.18
2022-09-04T11:12:01.132Z,25.24
2022-09-04T11:14:55.009Z,25.35
2022-09-04T11:17:42.962Z,25.41
2022-09-04T11:20:45.236Z,25.46
2022-09-04T11:23:52.780Z,25.50
2022-09-04T11:27:08.097Z,25.56
2022-09-04T11:29:55.430Z,25.60
2022-09-04T11:32:56.225Z,25.69
2022-09-04T11:36:01.552Z,25.74
2022-09-04T11:38:59.216Z,25.80
2022-09-04T11:42:04.054Z,25.78
2022-09-04T11:45:06.296Z,25.81
2022-09-04T11:48:09.478Z,25.81
2022-09-04T11:51:01.103Z,25.84
2022-09-04T11:53:50.104Z,25.89
2022-09-04T11:56:36.499Z,25.89
2022-09-04T11:59:35.175Z,25.88
2022-09-04T12:02:46.429Z,25.87
2022-09-04T12:05:43.402Z,25.87
2022-09-04T12:08:29.106Z,25.96
2022-09-04T12:11:34.619Z,26.01
2022-09-04T12:14:20.699Z,26.07
2022-09-04T12:17:25.825Z,26.18
2022-09-04T12:20:24.491Z,26.28
2022-09-04T12:23:21.420Z,26.32
2022-09-04T12:26:17.448Z,26.35
2022-09-04T12:29:14.964Z,26.38
2022-09-04T12:32:15.214Z,26.39
2022-09-04T12:35:31.598Z,26.38
2022-09-04T12:38:34.814Z,26.36
2022-09-04T12:41:12.300Z,26.34
2022-09-04T12:43:53.971Z,26.38
2022-09-04T12:46:38.257Z,26.42
2022-09-04T12:49:31.492Z,26.42
2022-09-04T12:52:18.585Z,26.43
2022-09-04T12:55:04.486Z,26.48
2022-09-04T12:57:46.784Z,26.50
2022-09-04T13:00:19.236Z,26.48
2022-09-04T13:03:03.600Z,26.49
2022-09-04T13:05:55.906Z,26.47
2022-09-04T13:08:38.610Z,26.46
2022-09-04T13:11:21.822Z,26.51
2022-09-04T13:14:07.395Z,26.58
2022-09-04T13:16:45.724Z,26.68
2022-09-04T13:19:25.630Z,26.71
2022-09-04T13:22:12.577Z,26.73
2022-09-04T13:24:57.957Z,26.80
2022-09-04T13:27:49.414Z,26.81
2022-09-04T13:30:24.673Z,26.76
2022-09-04T13:33:05.669Z,26.78
2022-09-04T13:35:59.417Z,26.78
2022-09-04T13:38:42.770Z,26.78
2022-09-04T13:41:42.702Z,26.79
2022-09-04T13:44:41.320Z,26.79
2022-09-04T13:47:16.315Z,26.80
2022-09-04T13:49:56.396Z,26.81
2022-09-04T13:52:33.539Z,26.86
2022-09-04T13:55:08.536Z,26.91
2022-09-04T13:57:43.124Z,26.94
2022-09-04T14:00:18.450Z,26.94
2022-09-04T14:02:49.457Z,26.92
2022-09-04T14:05:24.495Z,26.93
2022-09-04T14:08:02.991Z,26.94
2022-09-04T14:10:46.662Z,26.95
2022-09-04T14:13:34.066Z,26.94
2022-09-04T14:16:14.351Z,26.89
2022-09-04T14:19:12.342Z,26.87
2022-09-04T14:22:17.503Z,26.76
2022-09-04T14:24:56.455Z,26.73
2022-09-04T14:27:36.264Z,26.70
2022-09-04T14:30:10.342Z,26.70
2022-09-04T14:32:56.872Z,26.68
2022-09-04T14:35:36.087Z,26.70
2022-09-04T14:38:49.252Z,26.78
2022-09-04T14:41:35.937Z,26.81
2022-09-04T14:44:19.265Z,26.84
2022-09-04T14:46:59.684Z,26.84
2022-09-04T14:49:34.720Z,26.83
2022-09-04T14:52:12.672Z,26.81
2022-09-04T14:54:46.476Z,26.82
2022-09-04T14:57:23.870Z,26.86
2022-09-04T15:00:05.003Z,26.86
2022-09-04T15:02:40.181Z,26.86
2022-09-04T15:05:22.955Z,26.85
2022-09-04T15:08:00.137Z,26.81
2022-09-04T15:10:36.766Z,26.81
2022-09-04T15:13:45.443Z,26.76
2022-09-04T15:16:24.570Z,26.73
2022-09-04T15:19:07.111Z,26.76
2022-09-04T15:21:49.492Z,26.75
2022-09-04T15:24:27.163Z,26.76
2022-09-04T15:27:05.717Z,26.76
2022-09-04T15:29:41.801Z,26.76
2022-09-04T15:32:21.895Z,26.77
2022-09-04T15:34:52.775Z,26.77
2022-09-04T15:37:29.540Z,26.73
2022-09-04T15:40:12.375Z,26.67
2022-09-04T15:42:48.281Z,26.61
2022-09-04T15:45:26.175Z,26.56
2022-09-04T15:48:30.807Z,26.49
2022-09-04T15:51:12.816Z,26.42
2022-09-04T15:53:54.136Z,26.34
2022-09-04T15:56:35.592Z,26.30
2022-09-04T15:59:16.068Z,26.24
2022-09-04T16:01:53.053Z,26.18
2022-09-04T16:04:30.053Z,26.14
2022-09-04T16:07:22.379Z,26.07
2022-09-04T16:09:59.303Z,26.03
2022-09-04T16:12:34.041Z,25.99
2022-09-04T16:15:11.059Z,25.94
2022-09-04T16:17:46.084Z,25.88
2022-09-04T16:20:24.772Z,25.84
2022-09-04T16:22:58.666Z,25.81
2022-09-04T16:25:33.657Z,25.77
2022-09-04T16:28:09.005Z,25.72
2022-09-04T16:30:43.434Z,25.68
2022-09-04T16:33:28.131Z,25.67
2022-09-04T16:36:04.907Z,25.62
2022-09-04T16:38:40.727Z,25.56
2022-09-04T16:41:19.169Z,25.50
2022-09-04T16:44:11.282Z,25.44
2022-09-04T16:46:51.643Z,25.41
2022-09-04T16:49:28.149Z,25.36
2022-09-04T16:52:06.057Z,25.30
2022-09-04T16:54:49.484Z,25.25
2022-09-04T16:57:26.541Z,25.20
2022-09-04T17:00:00.857Z,25.16
2022-09-04T17:02:49.030Z,25.13
2022-09-04T17:05:28.556Z,25.09
2022-09-04T17:08:05.239Z,25.03
2022-09-04T17:10:43.141Z,25.00
2022-09-04T17:13:27.755Z,24.95
2022-09-04T17:16:02.946Z,24.91
2022-09-04T17:18:35.801Z,24.86
2022-09-04T17:25:18.217Z,24.83
2022-09-04T17:29:01.370Z,24.80
2022-09-04T17:29:19.056Z,24.76
2022-09-04T17:30:31.505Z,24.76
2022-09-04T17:40:44.054Z,24.72
2022-09-04T17:40:47.149Z,24.66
2022-09-04T17:40:50.438Z,24.69
2022-09-04T17:42:09.982Z,24.63
2022-09-04T17:44:50.676Z,24.59
2022-09-04T17:47:34.043Z,24.55
2022-09-04T17:50:05.167Z,24.51
2022-09-04T17:52:38.987Z,24.50
2022-09-04T17:55:14.138Z,24.45
2022-09-04T17:57:56.846Z,24.41
2022-09-04T18:00:32.188Z,24.35
2022-09-04T18:03:14.348Z,24.32
2022-09-04T18:05:53.195Z,24.27
2022-09-04T18:08:32.854Z,24.24
2022-09-04T18:11:09.563Z,24.17
2022-09-04T18:13:45.861Z,24.15
2022-09-04T18:16:47.812Z,24.11
2022-09-04T18:19:43.983Z,24.04
2022-09-04T18:22:33.592Z,24.01
2022-09-04T18:25:17.233Z,23.98
2022-09-04T18:28:06.580Z,23.93
2022-09-04T18:37:10.333Z,23.89
2022-09-04T18:37:19.365Z,23.83
2022-09-04T18:37:26.390Z,23.86
2022-09-04T18:39:50.457Z,23.82
2022-09-04T18:46:50.167Z,23.83
2022-09-04T18:50:34.149Z,23.80
2022-09-04T18:50:44.415Z,23.78
2022-09-04T18:51:25.286Z,23.75
2022-09-04T18:54:03.345Z,23.74
2022-09-04T18:56:38.984Z,23.75
2022-09-04T18:59:14.417Z,23.73
2022-09-04T19:01:47.970Z,23.70
2022-09-04T19:04:36.688Z,23.67
2022-09-04T19:07:11.602Z,23.63
2022-09-04T19:10:10.608Z,23.62
2022-09-04T19:13:02.053Z,23.61
2022-09-04T19:15:49.726Z,23.59
2022-09-04T19:18:27.460Z,23.57
2022-09-04T19:21:14.453Z,23.54
2022-09-04T19:23:50.350Z,23.51
2022-09-04T19:26:34.998Z,23.47
2022-09-04T19:29:12.119Z,23.46
2022-09-04T19:31:46.410Z,23.44
2022-09-04T19:34:23.369Z,23.42
2022-09-04T19:37:20.409Z,23.41
2022-09-04T19:45:05.716Z,23.38
2022-09-04T19:45:59.935Z,23.31
2022-09-04T19:46:17.544Z,23.36
2022-09-04T19:49:34.814Z,23.27
2022-09-04T19:53:24.134Z,23.21
2022-09-04T19:54:37.902Z,23.18
2022-09-04T19:57:32.857Z,23.13
2022-09-04T20:00:38.365Z,23.09
2022-09-04T20:03:06.431Z,23.06
2022-09-04T20:05:40.943Z,23.04
2022-09-04T20:08:19.149Z,23.03
2022-09-04T20:10:51.332Z,23.01
2022-09-04T20:13:28.132Z,22.99
2022-09-04T20:16:07.097Z,22.98
2022-09-04T20:18:40.814Z,22.95
2022-09-04T20:21:18.120Z,22.93
2022-09-04T20:23:55.324Z,22.92
2022-09-04T20:26:31.167Z,22.90
2022-09-04T20:29:17.659Z,22.89
2022-09-04T20:31:55.575Z,22.87
2022-09-04T20:34:31.633Z,22.84
2022-09-04T20:37:23.231Z,22.85
2022-09-04T20:40:05.025Z,22.81
2022-09-04T20:42:41.362Z,22.79
2022-09-04T20:52:02.864Z,22.77
2022-09-04T20:52:51.055Z,22.73
2022-09-04T20:53:05.827Z,22.69
2022-09-04T20:54:35.190Z,22.65
2022-09-04T21:01:41.290Z,22.60
2022-09-04T21:03:07.910Z,22.57
2022-09-04T21:03:28.138Z,22.53
2022-09-04T21:06:16.131Z,22.50
2022-09-04T21:08:51.287Z,22.46
2022-09-04T21:11:40.802Z,22.45
2022-09-04T21:14:19.485Z,22.41
2022-09-04T21:17:33.504Z,22.38
2022-09-04T21:20:28.577Z,22.34
2022-09-04T21:23:23.766Z,22.33
2022-09-04T21:26:06.839Z,22.33
2022-09-04T21:29:10.683Z,22.31
2022-09-04T21:31:56.844Z,22.28
2022-09-04T21:34:55.348Z,22.23
2022-09-04T21:37:32.676Z,22.21
2022-09-04T21:40:50.424Z,22.21
2022-09-04T21:43:45.275Z,22.16
2022-09-04T21:46:41.963Z,22.13
2022-09-04T21:49:39.412Z,22.07
2022-09-04T21:52:28.791Z,22.02
2022-09-04T21:57:14.938Z,22.00
2022-09-04T22:02:28.728Z,21.97
2022-09-04T22:02:37.308Z,21.93
2022-09-04T22:04:20.293Z,21.90
2022-09-04T22:10:00.524Z,21.89
2022-09-04T22:13:33.169Z,21.88
2022-09-04T22:13:48.112Z,21.89
2022-09-04T22:16:34.374Z,21.88
2022-09-04T22:19:28.383Z,21.89
2022-09-04T22:22:06.008Z,21.88
2022-09-04T22:25:05.682Z,21.87
2022-09-04T22:28:09.302Z,21.86
2022-09-04T22:31:03.669Z,21.83
2022-09-04T22:34:15.873Z,21.81
2022-09-04T22:37:25.245Z,21.79
2022-09-04T22:40:12.696Z,21.79
2022-09-04T22:42:50.917Z,21.77
2022-09-04T22:46:02.062Z,21.75
2022-09-04T22:49:12.624Z,21.72
2022-09-04T22:52:10.061Z,21.70
2022-09-04T22:54:56.918Z,21.68
2022-09-04T22:57:43.851Z,21.67
2022-09-04T23:00:18.971Z,21.66
2022-09-04T23:03:29.792Z,21.64
2022-09-04T23:10:24.673Z,21.61
2022-09-04T23:13:51.942Z,21.60
2022-09-04T23:13:57.109Z,21.59
2022-09-04T23:15:56.936Z,21.60
2022-09-04T23:21:47.973Z,21.60
2022-09-04T23:26:42.066Z,21.57
2022-09-04T23:26:43.055Z,21.55
2022-09-04T23:28:28.267Z,21.53
2022-09-04T23:31:19.770Z,21.51
2022-09-04T23:34:21.418Z,21.48
2022-09-04T23:37:14.667Z,21.47
2022-09-04T23:39:56.746Z,21.44
2022-09-04T23:42:43.789Z,21.41
2022-09-04T23:45:33.559Z,21.38
2022-09-04T23:48:33.168Z,21.35
2022-09-04T23:51:15.497Z,21.32
2022-09-04T23:53:55.193Z,21.32
2022-09-04T23:56:29.533Z,21.33
2022-09-04T23:59:23.656Z,21.33
